Time;durP1;ratioP1;P1;durP2;ratioP2;P2;SDS_P1;SDS_P2;PMS_P1;PMS_P2;Temp;Humidity;BMP_temperature;BMP_pressure;BME280_temperature;BME280_humidity;BME280_pressure;Samples;Min_cycle;Max_cycle;Signal;HPM_P1;HPM_P2
2023/11/18 00:01:20;;;;;;;11.80;6.80;;;;;;;4.67;95.60;100993.96;110973;1206;96498;-74
2023/11/18 00:03:46;;;;;;;13.10;7.20;;;;;;;4.65;95.18;100992.23;111023;1209;99961;-73
2023/11/18 00:06:12;;;;;;;14.60;7.90;;;;;;;4.63;95.30;100995.96;110920;1206;138426;-73
2023/11/18 00:08:38;;;;;;;14.60;8.40;;;;;;;4.59;95.21;100992.13;110871;1211;97661;-74
2023/11/18 00:11:04;;;;;;;13.10;7.70;;;;;;;4.55;95.22;100993.23;110909;1206;138672;-73
2023/11/18 00:13:29;;;;;;;15.60;8.40;;;;;;;4.51;95.26;100994.52;110936;1206;110886;-73
2023/11/18 00:15:54;;;;;;;16.80;9.00;;;;;;;4.49;95.31;100996.33;110943;1206;97589;-73
2023/11/18 00:18:21;;;;;;;15.80;8.00;;;;;;;4.48;95.33;100999.34;110879;1206;138070;-73
2023/11/18 00:20:46;;;;;;;21.80;9.70;;;;;;;4.49;95.30;101001.27;110946;1206;97595;-72
2023/11/18 00:23:11;;;;;;;14.40;8.10;;;;;;;4.50;95.31;101003.38;110815;1211;138521;-73
2023/11/18 00:25:39;;;;;;;15.60;8.50;;;;;;;4.52;95.30;101004.95;110940;1206;97724;-73
2023/11/18 00:28:07;;;;;;;19.00;10.10;;;;;;;4.52;95.37;101005.30;110930;1211;97662;-73
2023/11/18 00:30:33;;;;;;;15.20;9.20;;;;;;;4.52;95.35;101009.20;110712;1206;140247;-73
2023/11/18 00:32:58;;;;;;;19.30;8.90;;;;;;;4.54;95.30;101014.48;110931;1206;97782;-73
2023/11/18 00:35:24;;;;;;;15.70;8.80;;;;;;;4.56;95.40;101013.92;110881;1206;138431;-73
2023/11/18 00:37:49;;;;;;;20.90;10.10;;;;;;;4.58;95.31;101018.86;110849;1208;97673;-73
2023/11/18 00:40:19;;;;;;;17.30;9.40;;;;;;;4.58;95.29;101024.52;110869;1207;97583;-73
2023/11/18 00:42:48;;;;;;;18.60;9.70;;;;;;;4.59;95.25;101036.55;110724;1206;138275;-73
2023/11/18 00:45:13;;;;;;;15.90;10.10;;;;;;;4.60;95.41;101040.08;110803;1211;99001;-73
2023/11/18 00:47:41;;;;;;;17.60;10.70;;;;;;;4.54;95.01;101048.80;110748;1206;138928;-73
2023/11/18 00:50:08;;;;;;;19.80;10.70;;;;;;;4.53;94.95;101052.72;110880;1209;97682;-73
2023/11/18 00:52:34;;;;;;;20.30;12.00;;;;;;;4.51;94.87;101053.11;110968;1207;95730;-73
2023/11/18 00:55:00;;;;;;;27.10;12.20;;;;;;;4.51;95.17;101051.16;110720;1206;138628;-73
2023/11/18 00:57:25;;;;;;;21.90;12.00;;;;;;;4.50;95.13;101056.48;110945;1206;97582;-72
2023/11/18 00:59:52;;;;;;;19.40;10.90;;;;;;;4.44;94.99;101060.08;110822;1207;138899;-73
2023/11/18 01:02:18;;;;;;;21.20;12.00;;;;;;;4.40;94.78;101061.20;111037;1206;95966;-73
2023/11/18 01:04:45;;;;;;;28.40;13.40;;;;;;;4.40;94.90;101066.52;110988;1206;99757;-73
2023/11/18 01:07:11;;;;;;;21.50;11.70;;;;;;;4.34;94.81;101070.81;110920;1206;138163;-74
2023/11/18 01:09:38;;;;;;;25.30;13.30;;;;;;;4.32;95.04;101073.67;110889;1206;96462;-73
2023/11/18 01:12:09;;;;;;;22.80;12.80;;;;;;;4.35;95.10;101076.83;110896;1211;138511;-73
2023/11/18 01:14:36;;;;;;;27.50;12.30;;;;;;;4.38;95.08;101084.39;110918;1206;110124;-73
2023/11/18 01:17:02;;;;;;;28.80;13.30;;;;;;;4.39;95.03;101084.39;110792;1206;139910;-73
2023/11/18 01:19:28;;;;;;;25.60;13.10;;;;;;;4.39;94.94;101079.96;110916;1209;97607;-73
2023/11/18 01:21:53;;;;;;;24.30;12.80;;;;;;;4.40;94.95;101082.42;110950;1211;97636;-73
2023/11/18 01:24:19;;;;;;;24.80;13.60;;;;;;;4.41;95.09;101078.52;110795;1211;139033;-73
2023/11/18 01:26:45;;;;;;;27.80;14.90;;;;;;;4.43;95.09;101080.80;110965;1206;97675;-73
2023/11/18 01:29:10;;;;;;;23.00;12.20;;;;;;;4.45;95.08;101082.73;110895;1206;138460;-73
2023/11/18 01:31:36;;;;;;;28.40;14.40;;;;;;;4.42;94.70;101086.65;110798;1208;97094;-74
2023/11/18 01:34:01;;;;;;;28.40;14.30;;;;;;;4.40;94.76;101085.43;110891;1209;97667;-73
2023/11/18 01:36:26;;;;;;;27.80;13.90;;;;;;;4.41;94.88;101085.42;110851;1208;138314;-73
2023/11/18 01:38:55;;;;;;;29.90;16.10;;;;;;;4.42;95.14;101085.77;110858;1210;97684;-73
2023/11/18 01:41:20;;;;;;;29.50;15.30;;;;;;;4.44;94.86;101091.05;110690;1206;139097;-73
2023/11/18 01:43:46;;;;;;;32.00;14.30;;;;;;;4.46;95.04;101097.75;110882;1211;97805;-73
2023/11/18 01:46:12;;;;;;;31.40;14.80;;;;;;;4.47;95.00;101106.59;111009;1209;97587;-73
2023/11/18 01:48:39;;;;;;;30.70;16.70;;;;;;;4.49;95.00;101112.58;110761;1210;138506;-73
2023/11/18 01:51:07;;;;;;;34.90;15.70;;;;;;;4.51;95.04;101116.10;111049;1206;98011;-73
2023/11/18 01:53:40;;;;;;;35.60;16.40;;;;;;;4.51;95.09;101119.46;110856;1209;140754;-73
2023/11/18 01:56:08;;;;;;;38.90;16.00;;;;;;;4.47;94.81;101123.73;110960;1206;100684;-73
2023/11/18 01:58:35;;;;;;;34.10;17.40;;;;;;;4.45;94.79;101125.89;110862;1209;107748;-73
2023/11/18 02:01:02;;;;;;;35.10;16.40;;;;;;;4.46;94.89;101131.38;110873;1209;140390;-73
2023/11/18 02:03:28;;;;;;;36.40;17.30;;;;;;;4.45;95.09;101141.99;110931;1211;97640;-73
2023/11/18 02:05:53;;;;;;;39.70;16.80;;;;;;;4.44;94.91;101144.13;110721;1206;138374;-74
2023/11/18 02:08:20;;;;;;;41.10;17.30;;;;;;;4.44;94.80;101149.98;111058;1207;97678;-74
2023/11/18 02:10:50;;;;;;;37.90;17.10;;;;;;;4.47;95.14;101148.70;111048;1211;98127;-73
2023/11/18 02:13:29;;;;;;;39.10;16.50;;;;;;;4.50;95.08;101150.45;110815;1206;138703;-73
2023/11/18 02:15:57;;;;;;;44.20;17.70;;;;;;;4.48;94.95;101153.64;110874;1211;111880;-74
2023/11/18 02:18:29;;;;;;;45.10;17.40;;;;;;;4.48;94.93;101149.40;110891;1206;151503;-74
2023/11/18 02:20:59;;;;;;;51.80;21.10;;;;;;;4.48;94.92;101149.23;110917;1212;107246;-73
2023/11/18 02:23:27;;;;;;;43.70;18.10;;;;;;;4.44;94.80;101153.34;110818;1207;139666;-73
2023/11/18 02:25:53;;;;;;;44.80;18.30;;;;;;;4.43;94.98;101156.71;110813;1210;97652;-73
2023/11/18 02:28:22;;;;;;;44.80;18.40;;;;;;;4.44;94.84;101159.88;110899;1206;97579;-73
2023/11/18 02:31:16;;;;;;;43.50;17.30;;;;;;;4.43;94.84;101160.96;110860;1208;138574;-73
2023/11/18 02:34:12;;;;;;;43.60;17.00;;;;;;;4.42;94.71;101162.38;110878;1206;106801;-73
2023/11/18 02:36:45;;;;;;;45.30;18.10;;;;;;;4.40;94.84;101160.45;110725;1206;138563;-72
2023/11/18 02:39:40;;;;;;;48.70;19.10;;;;;;;4.41;94.68;101168.59;110939;1206;96443;-72
2023/11/18 02:42:10;;;;;;;43.00;17.00;;;;;;;4.39;94.87;101172.67;110795;1206;138255;-73
2023/11/18 02:44:37;;;;;;;42.60;16.60;;;;;;;4.39;94.86;101182.40;110908;1209;99822;-72
2023/11/18 02:47:05;;;;;;;40.50;16.50;;;;;;;4.41;94.83;101185.75;110801;1206;138450;-73
2023/11/18 02:49:31;;;;;;;36.70;17.10;;;;;;;4.41;94.76;101187.17;110809;1208;97875;-73
2023/11/18 02:51:56;;;;;;;38.80;16.10;;;;;;;4.36;94.47;101191.63;110947;1206;97638;-72
2023/11/18 02:54:24;;;;;;;44.80;17.90;;;;;;;4.37;94.67;101191.44;110865;1206;139380;-73
2023/11/18 02:56:49;;;;;;;42.30;17.00;;;;;;;4.34;94.44;101190.23;110926;1209;107516;-73
2023/11/18 02:59:19;;;;;;;47.80;19.00;;;;;;;4.26;94.38;101195.80;110856;1210;138601;-73
2023/11/18 03:01:44;;;;;;;41.80;16.70;;;;;;;4.26;94.93;101197.75;110800;1211;97693;-73
2023/11/18 03:04:10;;;;;;;43.10;16.10;;;;;;;4.27;94.94;101197.91;110802;1206;97559;-73
2023/11/18 03:06:36;;;;;;;38.90;16.30;;;;;;;4.30;94.73;101200.71;110725;1210;138515;-73
2023/11/18 03:09:02;;;;;;;36.50;15.90;;;;;;;4.32;94.67;101205.30;110932;1221;97674;-73
2023/11/18 03:11:31;;;;;;;44.10;15.60;;;;;;;4.33;94.78;101202.98;110838;1206;138993;-73
2023/11/18 03:13:56;;;;;;;36.20;16.40;;;;;;;4.35;94.68;101206.14;110886;1211;97559;-73
2023/11/18 03:16:24;;;;;;;36.00;15.50;;;;;;;4.36;94.84;101212.68;110932;1206;97626;-73
2023/11/18 03:18:50;;;;;;;38.40;16.30;;;;;;;4.38;94.78;101217.63;110841;1206;138321;-73
2023/11/18 03:21:15;;;;;;;35.20;15.10;;;;;;;4.38;94.87;101215.33;110898;1206;97671;-73
2023/11/18 03:23:41;;;;;;;34.10;14.70;;;;;;;4.41;94.62;101222.91;110695;1208;140917;-73
2023/11/18 03:26:08;;;;;;;39.80;16.60;;;;;;;4.41;94.75;101224.67;110889;1209;97696;-73
2023/11/18 03:28:33;;;;;;;35.50;15.10;;;;;;;4.41;94.90;101223.61;110991;1206;97320;-73
2023/11/18 03:30:59;;;;;;;35.10;14.90;;;;;;;4.42;94.98;101220.06;110827;1206;140080;-73
2023/11/18 03:33:24;;;;;;;35.80;15.50;;;;;;;4.43;94.72;101222.70;110881;1208;96458;-73
2023/11/18 03:35:49;;;;;;;30.50;13.60;;;;;;;4.45;94.90;101223.76;110833;1211;138941;-73
2023/11/18 03:38:17;;;;;;;34.50;14.70;;;;;;;4.45;94.86;101225.70;110786;1206;96585;-73
2023/11/18 03:40:44;;;;;;;35.30;15.10;;;;;;;4.41;94.44;101226.27;110858;1210;99085;-73
2023/11/18 03:43:11;;;;;;;34.50;16.10;;;;;;;4.33;94.32;101235.71;110725;1209;138438;-73
2023/11/18 03:45:39;;;;;;;33.80;14.50;;;;;;;4.27;94.41;101239.66;111248;1209;97674;-74
2023/11/18 03:48:06;;;;;;;36.00;15.40;;;;;;;4.30;94.77;101235.20;110965;1206;138577;-74
2023/11/18 03:50:32;;;;;;;32.60;15.00;;;;;;;4.32;94.71;101239.44;110950;1209;97798;-73
2023/11/18 03:52:58;;;;;;;38.80;15.70;;;;;;;4.33;94.75;101239.60;110978;1207;138669;-73
2023/11/18 03:55:23;;;;;;;36.50;15.50;;;;;;;4.34;94.74;101242.60;110865;1206;98664;-74
2023/11/18 03:57:49;;;;;;;37.90;15.80;;;;;;;4.30;94.52;101243.35;110894;1210;97661;-73
2023/11/18 04:00:17;;;;;;;36.40;15.10;;;;;;;4.24;94.52;101246.94;110957;1208;138321;-73
2023/11/18 04:02:45;;;;;;;36.50;15.90;;;;;;;4.20;94.38;101247.85;110966;1206;110596;-73
2023/11/18 04:05:12;;;;;;;35.80;15.40;;;;;;;4.20;94.75;101255.10;110855;1211;139178;-73
2023/11/18 04:07:37;;;;;;;33.60;15.30;;;;;;;4.22;94.70;101259.85;110931;1206;97581;-72
2023/11/18 04:10:09;;;;;;;34.00;14.90;;;;;;;4.25;94.75;101265.14;110928;1207;97647;-73
2023/11/18 04:12:35;;;;;;;35.10;14.50;;;;;;;4.28;94.90;101263.35;110861;1206;138912;-73
2023/11/18 04:15:01;;;;;;;28.30;14.00;;;;;;;4.31;94.71;101265.10;110931;1211;97776;-73
2023/11/18 04:17:28;;;;;;;30.00;14.20;;;;;;;4.31;94.82;101264.03;110801;1208;138918;-73
2023/11/18 04:19:55;;;;;;;29.90;13.40;;;;;;;4.31;94.73;101267.39;110734;1207;97600;-73
2023/11/18 04:22:21;;;;;;;30.40;13.30;;;;;;;4.31;94.84;101271.64;110737;1211;110611;-72
2023/11/18 04:24:48;;;;;;;30.40;14.20;;;;;;;4.33;94.83;101269.86;110813;1206;138675;-73
2023/11/18 04:27:15;;;;;;;23.80;12.00;;;;;;;4.34;94.78;101274.63;111195;1207;97591;-73
2023/11/18 04:29:40;;;;;;;26.40;12.30;;;;;;;4.34;94.90;101274.98;110849;1207;138920;-72
2023/11/18 04:32:09;;;;;;;27.90;13.80;;;;;;;4.27;94.41;101274.33;110967;1211;97626;-74
2023/11/18 04:34:37;;;;;;;30.80;13.10;;;;;;;4.22;94.49;101279.48;110818;1206;100383;-75
2023/11/18 04:37:05;;;;;;;26.50;13.30;;;;;;;4.20;94.68;101278.98;110783;1208;139024;-74
2023/11/18 04:39:34;;;;;;;23.60;11.80;;;;;;;4.14;94.27;101280.08;110939;1211;97592;-74
2023/11/18 04:42:01;;;;;;;23.50;12.10;;;;;;;4.05;94.44;101280.14;110772;1209;138978;-72
2023/11/18 04:44:26;;;;;;;24.30;11.40;;;;;;;3.99;94.50;101280.89;110964;1211;97585;-72
2023/11/18 04:46:52;;;;;;;22.80;11.20;;;;;;;3.97;94.47;101283.38;110784;1210;139079;-72
2023/11/18 04:49:17;;;;;;;21.10;11.10;;;;;;;3.97;94.58;101287.45;110963;1223;97668;-72
2023/11/18 04:51:44;;;;;;;23.90;12.20;;;;;;;3.96;94.64;101293.64;110942;1206;97677;-72
2023/11/18 04:54:10;;;;;;;21.00;11.10;;;;;;;3.97;94.75;101293.27;110753;1208;138466;-72
2023/11/18 04:56:36;;;;;;;25.70;12.10;;;;;;;3.99;94.72;101297.15;110963;1208;97648;-73
2023/11/18 04:59:05;;;;;;;29.70;12.60;;;;;;;4.02;94.82;101302.27;110701;1206;139599;-73
2023/11/18 05:01:31;;;;;;;21.70;11.00;;;;;;;4.02;94.72;101300.86;110906;1208;97695;-73
2023/11/18 05:03:57;;;;;;;21.20;11.20;;;;;;;4.01;94.76;101298.55;110930;1206;97694;-73
2023/11/18 05:06:23;;;;;;;22.40;11.20;;;;;;;4.01;94.70;101297.32;110782;1211;138325;-73
2023/11/18 05:08:48;;;;;;;20.10;11.00;;;;;;;4.04;94.86;101299.08;110833;1208;97693;-73
2023/11/18 05:11:13;;;;;;;17.10;9.30;;;;;;;4.06;94.94;101296.05;110767;1211;140199;-73
2023/11/18 05:13:41;;;;;;;23.70;11.20;;;;;;;4.08;94.81;101297.10;110974;1207;97597;-72
2023/11/18 05:16:08;;;;;;;21.60;10.80;;;;;;;4.11;94.85;101297.27;110876;1207;107173;-73
2023/11/18 05:18:36;;;;;;;20.70;10.50;;;;;;;4.12;94.86;101299.91;110757;1209;140119;-73
2023/11/18 05:21:04;;;;;;;23.30;10.40;;;;;;;4.12;94.79;101297.08;110950;1210;96788;-73
2023/11/18 05:23:30;;;;;;;18.00;10.20;;;;;;;4.13;94.94;101297.42;110830;1208;138537;-73
2023/11/18 05:25:58;;;;;;;18.60;9.80;;;;;;;4.12;94.84;101301.15;110789;1206;97651;-73
2023/11/18 05:28:25;;;;;;;24.40;10.20;;;;;;;4.12;94.80;101301.49;110897;1208;98516;-72
2023/11/18 05:30:51;;;;;;;20.10;10.70;;;;;;;4.12;94.92;101313.87;110745;1206;138347;-73
2023/11/18 05:33:17;;;;;;;23.00;10.30;;;;;;;4.09;94.65;101314.60;110969;1206;97642;-73
2023/11/18 05:35:50;;;;;;;24.90;11.00;;;;;;;4.06;94.82;101316.21;110751;1207;138360;-72
2023/11/18 05:38:21;;;;;;;22.00;11.90;;;;;;;4.06;94.89;101317.27;110929;1207;108497;-72
2023/11/18 05:40:57;;;;;;;22.70;10.80;;;;;;;4.06;94.66;101320.27;111012;1206;97634;-72
2023/11/18 05:43:25;;;;;;;16.30;9.50;;;;;;;4.03;94.73;101325.77;110845;1206;105951;-72
2023/11/18 05:48:36;;;;;;;18.40;10.30;;;;;;;4.07;94.95;101327.52;110802;1209;138534;-72
2023/11/18 05:51:02;;;;;;;17.80;9.30;;;;;;;4.09;95.08;101328.57;111028;1208;97546;-72
2023/11/18 05:53:27;;;;;;;23.40;11.10;;;;;;;4.09;95.10;101329.98;110852;1210;138447;-72
2023/11/18 05:55:53;;;;;;;21.70;10.40;;;;;;;4.11;95.15;101332.27;110990;1205;97584;-72
2023/11/18 05:58:18;;;;;;;21.80;10.60;;;;;;;4.13;95.14;101335.09;110895;1206;97641;-72
2023/11/18 06:00:43;;;;;;;18.80;9.70;;;;;;;4.15;95.23;101338.80;110548;1208;138301;-72
2023/11/18 06:03:11;;;;;;;17.00;8.80;;;;;;;4.16;94.99;101342.86;110841;1208;97700;-72
2023/11/18 06:05:36;;;;;;;19.40;9.50;;;;;;;4.17;95.19;101346.21;110711;1211;138877;-72
2023/11/18 06:08:02;;;;;;;16.00;7.50;;;;;;;4.18;94.97;101349.56;111030;1208;98974;-74
2023/11/18 06:10:28;;;;;;;14.20;6.80;;;;;;;4.17;95.23;101351.34;110865;1206;97591;-72
2023/11/18 06:12:55;;;;;;;18.70;7.40;;;;;;;4.16;94.99;101356.12;110777;1211;138375;-72
2023/11/18 06:15:22;;;;;;;13.20;6.90;;;;;;;4.16;94.99;101356.30;111075;1209;97659;-72
2023/11/18 06:17:48;;;;;;;12.80;6.20;;;;;;;4.14;95.12;101359.32;110798;1206;138745;-72
2023/11/18 06:20:14;;;;;;;15.50;7.40;;;;;;;4.12;95.03;101358.62;111072;1205;97812;-72
2023/11/18 06:22:39;;;;;;;14.70;6.90;;;;;;;4.12;95.02;101360.05;110922;1205;96965;-73
2023/11/18 06:25:07;;;;;;;14.10;7.10;;;;;;;4.12;95.08;101364.10;110875;1205;138186;-73
2023/11/18 06:27:33;;;;;;;14.40;6.80;;;;;;;4.12;95.20;101365.52;110881;1206;97709;-73
2023/11/18 06:29:58;;;;;;;15.90;7.60;;;;;;;4.12;94.92;101374.55;110819;1206;138844;-73
2023/11/18 06:32:25;;;;;;;17.40;8.10;;;;;;;4.14;95.07;101380.36;110883;1205;96481;-73
2023/11/18 06:34:53;;;;;;;14.10;7.10;;;;;;;4.16;95.21;101384.25;110855;1209;97692;-73
2023/11/18 06:37:18;;;;;;;17.80;8.40;;;;;;;4.15;95.28;101386.02;110953;1205;138690;-73
2023/11/18 06:39:47;;;;;;;15.80;8.40;;;;;;;4.15;95.01;101388.33;110864;1210;97682;-73
2023/11/18 06:42:13;;;;;;;17.80;9.30;;;;;;;4.16;95.20;101393.80;110774;1209;138828;-73
2023/11/18 06:44:40;;;;;;;20.90;10.70;;;;;;;4.15;95.09;101392.21;110991;1208;97598;-73
2023/11/18 06:47:06;;;;;;;21.00;10.70;;;;;;;4.15;95.17;101395.21;110921;1208;139245;-70
2023/11/18 06:49:36;;;;;;;22.70;10.80;;;;;;;4.14;95.07;101394.70;111045;1205;107756;-72
2023/11/18 06:52:02;;;;;;;21.90;10.40;;;;;;;4.13;95.04;101394.52;111059;1209;97678;-72
2023/11/18 06:54:28;;;;;;;23.60;12.00;;;;;;;4.12;95.04;101392.75;110867;1206;138428;-72
2023/11/18 06:56:53;;;;;;;24.20;12.10;;;;;;;4.12;95.19;101394.52;110951;1206;97751;-71
2023/11/18 06:59:19;;;;;;;21.80;11.30;;;;;;;4.12;95.13;101399.83;110961;1208;138829;-73
2023/11/18 07:01:44;;;;;;;22.30;11.20;;;;;;;4.09;94.89;101401.62;110876;1206;97498;-72
2023/11/18 07:04:10;;;;;;;20.60;12.00;;;;;;;4.08;94.96;101406.92;110990;1210;97681;-72
2023/11/18 07:06:39;;;;;;;21.60;11.60;;;;;;;4.08;95.18;101406.39;110881;1206;138493;-73
2023/11/18 07:09:20;;;;;;;20.70;11.50;;;;;;;4.10;95.26;101408.68;111095;1208;106385;-74
2023/11/18 07:11:47;;;;;;;24.00;11.80;;;;;;;4.11;95.00;101409.21;110823;1211;139067;-74
2023/11/18 07:14:14;;;;;;;22.00;11.20;;;;;;;4.09;95.09;101410.98;111109;1206;97670;-75
2023/11/18 07:16:41;;;;;;;21.50;11.00;;;;;;;4.08;94.82;101415.59;111021;1209;97632;-75
2023/11/18 07:19:07;;;;;;;20.30;11.10;;;;;;;4.06;95.04;101413.30;110819;1208;139885;-73
2023/11/18 07:21:34;;;;;;;21.50;11.30;;;;;;;4.07;95.03;101410.99;110805;1211;97572;-74
2023/11/18 07:24:02;;;;;;;23.40;11.60;;;;;;;4.08;95.18;101414.70;110704;1210;138460;-74
2023/11/18 07:26:27;;;;;;;17.10;10.60;;;;;;;4.08;95.19;101409.94;110964;1205;97681;-74
2023/11/18 07:28:53;;;;;;;20.40;10.90;;;;;;;4.08;94.96;101411.70;111161;1209;97638;-73
2023/11/18 07:31:18;;;;;;;21.00;10.80;;;;;;;4.07;94.84;101412.41;111079;1208;138904;-73
2023/11/18 07:33:48;;;;;;;20.80;11.80;;;;;;;4.09;94.88;101420.71;111121;1208;97668;-72
2023/11/18 07:36:19;;;;;;;24.00;10.30;;;;;;;4.10;94.94;101425.14;111031;1205;139973;-72
2023/11/18 07:38:49;;;;;;;15.60;9.80;;;;;;;4.10;94.90;101428.14;111167;1208;99704;-74
2023/11/18 07:41:27;;;;;;;18.90;10.60;;;;;;;4.11;94.88;101433.09;110895;1205;138369;-73
2023/11/18 07:43:55;;;;;;;23.00;11.60;;;;;;;4.08;94.97;101436.81;111040;1205;97658;-74
2023/11/18 07:46:25;;;;;;;21.30;11.70;;;;;;;4.09;94.79;101429.56;111140;1205;97529;-73
2023/11/18 07:48:51;;;;;;;19.00;10.90;;;;;;;4.12;95.09;101433.79;111098;1205;138695;-74
2023/11/18 07:51:21;;;;;;;19.40;10.50;;;;;;;4.13;94.81;101437.85;111081;1211;97822;-73
2023/11/18 07:53:51;;;;;;;19.90;10.30;;;;;;;4.11;94.61;101441.92;110931;1209;138691;-74
2023/11/18 07:56:22;;;;;;;18.50;10.00;;;;;;;4.11;94.86;101445.65;111097;1209;97590;-75
2023/11/18 07:58:47;;;;;;;16.10;9.60;;;;;;;4.10;94.84;101447.77;111237;1206;97707;-70
2023/11/18 08:01:16;;;;;;;20.40;10.40;;;;;;;4.11;94.86;101448.48;111085;1205;138272;-69
2023/11/18 08:03:41;;;;;;;20.60;10.60;;;;;;;4.10;94.71;101449.02;111216;1208;97672;-71
2023/11/18 08:06:07;;;;;;;17.30;9.80;;;;;;;4.08;94.70;101453.80;111125;1206;138469;-71
2023/11/18 08:08:34;;;;;;;17.00;10.10;;;;;;;4.09;94.79;101449.55;111195;1206;97648;-70
2023/11/18 08:10:59;;;;;;;18.60;10.90;;;;;;;4.08;94.74;101456.45;111155;1206;138734;-71
2023/11/18 08:13:26;;;;;;;21.70;10.70;;;;;;;4.10;94.71;101459.80;111154;1205;101013;-70
2023/11/18 08:15:52;;;;;;;18.80;10.20;;;;;;;4.11;94.73;101462.27;111064;1210;97660;-70
2023/11/18 08:18:21;;;;;;;23.30;10.60;;;;;;;4.12;94.79;101457.85;113210;1206;139796;-71
2023/11/18 08:20:48;;;;;;;19.00;10.80;;;;;;;4.15;94.93;101465.44;113320;1205;112138;-71
2023/11/18 08:23:13;;;;;;;21.40;11.20;;;;;;;4.17;94.74;101466.66;111390;1205;138759;-71
2023/11/18 08:25:40;;;;;;;23.00;12.10;;;;;;;4.20;94.80;101469.13;111163;1209;97671;-71
2023/11/18 08:28:07;;;;;;;20.30;10.40;;;;;;;4.22;94.90;101469.48;111206;1208;97693;-70
2023/11/18 08:30:33;;;;;;;22.40;11.60;;;;;;;4.26;94.93;101472.29;111837;1206;139112;-70
2023/11/18 08:32:59;;;;;;;20.10;11.00;;;;;;;4.29;94.82;101476.52;111152;1206;97594;-70
2023/11/18 08:35:25;;;;;;;22.10;11.80;;;;;;;4.29;94.93;101480.06;110914;1206;139315;-70
2023/11/18 08:37:51;;;;;;;27.10;11.50;;;;;;;4.30;94.79;101484.31;110911;1208;97995;-70
2023/11/18 08:40:21;;;;;;;19.30;11.30;;;;;;;4.27;94.77;101488.20;111149;1206;97830;-69
2023/11/18 08:42:49;;;;;;;22.40;12.50;;;;;;;4.31;94.68;101495.45;111170;1206;139517;-70
2023/11/18 08:45:29;;;;;;;22.80;12.00;;;;;;;4.34;95.04;101493.84;111179;1206;107772;-70
2023/11/18 08:47:56;;;;;;;24.30;12.80;;;;;;;4.34;94.89;101501.80;111138;1208;139265;-71
2023/11/18 08:50:27;;;;;;;18.90;11.00;;;;;;;4.34;94.86;101505.17;111300;1208;97642;-70
2023/11/18 08:52:59;;;;;;;20.40;11.30;;;;;;;4.35;94.93;101511.00;111187;1206;110655;-70
2023/11/18 08:55:39;;;;;;;19.50;12.20;;;;;;;4.32;94.51;101517.73;111231;1206;99164;-70
2023/11/18 08:58:51;;;;;;;21.60;11.40;;;;;;;4.36;94.90;101522.85;111246;1206;108380;-70
2023/11/18 09:01:13;;;;;;;21.80;12.10;;;;;;;4.41;94.98;101524.95;111009;1206;138713;-70
2023/11/18 09:03:52;;;;;;;23.00;11.80;;;;;;;4.43;95.00;101527.77;111117;1206;98351;-71
2023/11/18 09:06:17;;;;;;;21.20;12.10;;;;;;;4.45;94.73;101529.02;110860;1208;140345;-72
2023/11/18 09:08:44;;;;;;;24.00;11.30;;;;;;;4.44;94.95;101531.84;110976;1206;98891;-71
2023/11/18 09:11:14;;;;;;;21.80;12.20;;;;;;;4.45;94.66;101536.27;111024;1208;138804;-71
2023/11/18 09:13:47;;;;;;;20.40;11.90;;;;;;;4.45;94.89;101545.29;111191;1208;97671;-71
2023/11/18 09:16:12;;;;;;;22.70;12.20;;;;;;;4.44;94.73;101549.36;111226;1206;96410;-71
2023/11/18 09:18:44;;;;;;;21.80;12.50;;;;;;;4.44;94.80;101557.33;111034;1211;138663;-70
2023/11/18 09:21:14;;;;;;;22.10;12.30;;;;;;;4.45;94.87;101564.41;111253;1206;99701;-70
2023/11/18 09:23:41;;;;;;;18.90;11.10;;;;;;;4.45;94.48;101568.13;110993;1209;138940;-71
2023/11/18 09:26:08;;;;;;;22.20;11.70;;;;;;;4.42;94.47;101567.60;111184;1205;96857;-70
2023/11/18 09:28:34;;;;;;;23.60;12.70;;;;;;;4.40;94.34;101567.97;111205;1208;97680;-70
2023/11/18 09:31:02;;;;;;;25.60;12.00;;;;;;;4.41;94.57;101568.66;111080;1207;138903;-70
2023/11/18 09:33:32;;;;;;;21.50;12.00;;;;;;;4.42;94.54;101568.30;111193;1208;97600;-70
2023/11/18 09:36:12;;;;;;;23.10;11.90;;;;;;;4.39;94.35;101572.73;111065;1208;138552;-70
2023/11/18 09:38:42;;;;;;;20.00;10.50;;;;;;;4.37;94.40;101577.70;111045;1212;97744;-70
2023/11/18 09:41:13;;;;;;;21.00;10.90;;;;;;;4.40;94.41;101578.93;111112;1206;139199;-70
2023/11/18 09:43:45;;;;;;;23.90;12.00;;;;;;;4.42;94.55;101582.64;111215;1209;111994;-70
2023/11/18 09:46:15;;;;;;;21.40;12.00;;;;;;;4.43;94.63;101583.52;111205;1208;99669;-70
2023/11/18 09:48:52;;;;;;;18.60;11.20;;;;;;;4.44;94.42;101583.69;111031;1209;138475;-70
2023/11/18 09:51:29;;;;;;;24.80;11.10;;;;;;;4.45;94.41;101582.80;111148;1205;104842;-70
2023/11/18 09:54:00;;;;;;;20.40;11.50;;;;;;;4.45;94.44;101581.92;111065;1211;139499;-70
2023/11/18 09:56:45;;;;;;;23.30;13.50;;;;;;;4.47;94.47;101584.04;111218;1206;110150;-70
2023/11/18 09:59:15;;;;;;;25.20;13.80;;;;;;;4.50;94.45;101582.96;111120;1206;140375;-71
2023/11/18 10:01:44;;;;;;;28.70;15.90;;;;;;;4.51;94.47;101577.65;111160;1209;107332;-70
2023/11/18 10:04:12;;;;;;;24.80;14.40;;;;;;;4.53;94.31;101582.07;111434;1208;97716;-70
2023/11/18 10:06:40;;;;;;;25.30;14.60;;;;;;;4.54;94.27;101582.25;111136;1206;138801;-71
2023/11/18 10:09:15;;;;;;;23.00;13.30;;;;;;;4.53;94.28;101582.95;111088;1209;110319;-70
2023/11/18 10:11:42;;;;;;;23.00;14.00;;;;;;;4.55;94.29;101583.84;111017;1211;138891;-70
2023/11/18 10:14:08;;;;;;;27.50;14.30;;;;;;;4.55;94.37;101583.48;111197;1206;97568;-71
2023/11/18 10:16:35;;;;;;;28.70;15.30;;;;;;;4.55;94.19;101584.89;111174;1209;97674;-71
2023/11/18 10:19:08;;;;;;;26.90;15.30;;;;;;;4.55;94.23;101589.50;111039;1205;138506;-71
2023/11/18 10:21:39;;;;;;;29.90;15.80;;;;;;;4.56;94.20;101593.03;111188;1209;112129;-71
2023/11/18 10:24:14;;;;;;;25.40;14.30;;;;;;;4.56;94.24;101594.09;111070;1209;140242;-71
2023/11/18 10:26:40;;;;;;;25.20;13.60;;;;;;;4.56;94.02;101594.27;111213;1207;107318;-70
2023/11/18 10:29:08;;;;;;;24.90;13.50;;;;;;;4.58;94.25;101594.27;111232;1205;97751;-70
2023/11/18 10:31:37;;;;;;;28.20;13.90;;;;;;;4.62;94.36;101591.95;111218;1204;97641;-70
2023/11/18 10:34:04;;;;;;;25.10;13.80;;;;;;;4.62;94.22;101593.72;111093;1207;110222;-70
2023/11/18 10:36:33;;;;;;;26.80;13.90;;;;;;;4.62;94.01;101591.77;111115;1211;139154;-70
2023/11/18 10:39:01;;;;;;;24.80;13.10;;;;;;;4.62;94.10;101588.94;111087;1207;107836;-70
2023/11/18 10:41:26;;;;;;;24.00;12.70;;;;;;;4.64;93.97;101591.59;111033;1209;140305;-70
2023/11/18 10:44:13;;;;;;;23.70;12.40;;;;;;;4.64;94.08;101592.83;111072;1206;96142;-70
2023/11/18 10:46:40;;;;;;;23.50;13.20;;;;;;;4.63;94.03;101593.90;111124;1206;112331;-70
2023/11/18 10:49:09;;;;;;;24.70;13.60;;;;;;;4.61;93.99;101597.27;110914;1209;139337;-70
2023/11/18 10:51:35;;;;;;;25.90;12.70;;;;;;;4.62;93.80;101594.08;110994;1206;107760;-69
2023/11/18 10:54:03;;;;;;;24.20;13.70;;;;;;;4.65;93.91;101592.30;110885;1206;139441;-69
2023/11/18 10:56:29;;;;;;;19.80;12.30;;;;;;;4.67;93.94;101587.86;111021;1208;97680;-69
2023/11/18 10:59:09;;;;;;;24.60;13.10;;;;;;;4.66;93.76;101594.05;111101;1206;95883;-71
2023/11/18 11:04:58;;;;;;;23.60;12.90;;;;;;;4.62;93.69;101594.77;110801;1206;107588;-69
2023/11/18 11:07:25;;;;;;;22.50;13.00;;;;;;;4.60;93.57;101595.15;110929;1212;139331;-69
2023/11/18 11:09:56;;;;;;;26.10;13.30;;;;;;;4.60;93.56;101591.08;110949;1206;96227;-69
2023/11/18 11:12:25;;;;;;;25.20;13.90;;;;;;;4.58;93.43;101594.80;110869;1211;139491;-70
2023/11/18 11:15:07;;;;;;;22.60;12.50;;;;;;;4.57;93.37;101597.45;111051;1206;100382;-70
2023/11/18 11:17:37;;;;;;;25.40;13.60;;;;;;;4.59;93.46;101596.20;111034;1206;140430;-70